createdAt,value
2022-08-05T00:08:35.299Z,239
2022-08-05T00:18:02.594Z,202
2022-08-05T00:26:18.642Z,147
2022-08-05T00:35:36.396Z,183
2022-08-05T00:45:11.826Z,178
2022-08-05T00:54:37.206Z,194
2022-08-05T01:03:30.776Z,168
2022-08-05T01:12:18.363Z,228
2022-08-05T01:21:11.944Z,169
2022-08-05T01:29:50.400Z,204
2022-08-05T01:38:14.537Z,233
2022-08-05T01:46:41.747Z,211
2022-08-05T01:55:06.057Z,219
2022-08-05T02:04:43.083Z,182
2022-08-05T02:12:50.959Z,177
2022-08-05T02:21:37.988Z,216
2022-08-05T02:30:00.579Z,195
2022-08-05T02:38:25.388Z,224
2022-08-05T02:46:27.557Z,228
2022-08-05T02:55:10.799Z,249
2022-08-05T03:04:02.399Z,213
2022-08-05T03:18:18.855Z,251
2022-08-05T03:27:07.329Z,255
2022-08-05T03:36:27.990Z,263
2022-08-05T03:45:21.251Z,311
2022-08-05T03:57:16.216Z,256
2022-08-05T04:05:51.525Z,320
2022-08-05T04:14:29.687Z,318
2022-08-05T04:23:16.186Z,288
2022-08-05T04:31:46.320Z,285
2022-08-05T04:41:37.849Z,221
2022-08-05T04:49:39.362Z,329
2022-08-05T04:59:13.951Z,304
2022-08-05T05:08:30.345Z,317
2022-08-05T05:16:31.946Z,252
2022-08-05T05:25:40.668Z,314
2022-08-05T05:36:51.214Z,314
2022-08-05T05:45:48.119Z,355
2022-08-05T05:54:35.479Z,341
2022-08-05T06:03:28.402Z,335
2022-08-05T06:11:59.770Z,372
2022-08-05T06:21:00.969Z,327
2022-08-05T06:31:18.152Z,427
2022-08-05T06:41:47.610Z,342
2022-08-05T06:52:01.514Z,420
2022-08-05T07:01:13.290Z,490
2022-08-05T07:09:32.267Z,421
2022-08-05T07:20:52.402Z,393
2022-08-05T07:31:11.495Z,356
2022-08-05T07:41:17.257Z,290
2022-08-05T07:51:23.236Z,275
2022-08-05T08:02:05.285Z,340
2022-08-05T08:10:48.879Z,322
2022-08-05T08:21:25.339Z,386
2022-08-05T08:31:24.728Z,317
2022-08-05T08:39:49.573Z,339
2022-08-05T08:52:51.580Z,385
2022-08-05T09:01:57.153Z,537
2022-08-05T09:10:33.837Z,464
2022-08-05T09:20:38.161Z,505
2022-08-05T09:31:22.050Z,348
2022-08-05T09:41:32.859Z,370
2022-08-05T09:50:38.310Z,323
2022-08-05T09:59:34.947Z,330
2022-08-05T10:09:25.245Z,389
2022-08-05T10:18:55.793Z,352
2022-08-05T10:28:53.242Z,290
2022-08-05T10:39:58.620Z,367
2022-08-05T10:49:48.690Z,365
2022-08-05T10:58:47.946Z,273
2022-08-05T11:08:36.963Z,241
2022-08-05T11:17:56.939Z,241
2022-08-05T11:28:36.144Z,296
2022-08-05T11:38:27.196Z,240
2022-08-05T11:49:35.476Z,246
2022-08-05T11:58:07.967Z,254
2022-08-05T12:06:28.220Z,252
2022-08-05T12:15:35.990Z,303
2022-08-05T12:24:59.539Z,249
2022-08-05T12:33:07.068Z,304
2022-08-05T12:41:08.620Z,240
2022-08-05T12:50:01.926Z,180
2022-08-05T13:02:32.524Z,226
2022-08-05T13:11:05.536Z,259
2022-08-05T13:20:31.960Z,304
2022-08-05T13:29:37.249Z,420
2022-08-05T13:40:14.852Z,322
2022-08-05T13:49:35.247Z,408
2022-08-05T13:58:30.266Z,272
2022-08-05T14:07:12.252Z,296
2022-08-05T14:17:25.816Z,208
2022-08-05T14:26:04.891Z,215
2022-08-05T14:35:50.184Z,258
2022-08-05T14:45:24.844Z,67
2022-08-05T14:54:28.887Z,40
2022-08-05T15:03:39.612Z,65
2022-08-05T15:13:45.766Z,68
2022-08-05T15:22:10.587Z,47
2022-08-05T15:30:18.665Z,59
2022-08-05T15:41:55.291Z,72
2022-08-05T15:50:34.403Z,33
2022-08-05T15:59:57.698Z,22
2022-08-05T16:08:30.540Z,54
2022-08-05T16:16:29.647Z,62
2022-08-05T16:24:40.803Z,25
2022-08-05T16:33:41.207Z,36
2022-08-05T16:50:26.551Z,55
2022-08-05T16:59:10.564Z,61
2022-08-05T17:07:01.371Z,61
2022-08-05T17:15:55.690Z,69
2022-08-05T17:24:03.868Z,46
2022-08-05T17:32:29.389Z,69
2022-08-05T17:41:03.779Z,60
2022-08-05T17:49:51.919Z,93
2022-08-05T17:57:24.514Z,62
2022-08-05T18:06:01.459Z,60
2022-08-05T18:13:44.737Z,102
2022-08-05T18:22:08.130Z,58
2022-08-05T18:37:40.121Z,60
2022-08-05T18:47:28.770Z,73
2022-08-05T18:56:21.613Z,76
2022-08-05T19:05:25.225Z,147
2022-08-05T19:14:45.136Z,73
2022-08-05T19:24:04.665Z,126
2022-08-05T19:32:06.228Z,60
2022-08-05T19:40:29.349Z,128
2022-08-05T19:49:57.095Z,80
2022-08-05T20:00:28.689Z,93
2022-08-05T20:08:26.018Z,200
2022-08-05T20:16:37.167Z,155
2022-08-05T20:24:25.968Z,132
2022-08-05T20:32:22.786Z,269
2022-08-05T20:40:27.107Z,229
2022-08-05T20:48:51.024Z,145
2022-08-05T20:58:16.235Z,120
2022-08-05T21:06:28.632Z,131
2022-08-05T21:15:40.228Z,100
2022-08-05T21:23:41.553Z,128
2022-08-05T21:31:44.428Z,110
2022-08-05T21:39:49.507Z,95
2022-08-05T21:48:41.643Z,102
2022-08-05T21:59:48.324Z,67
2022-08-05T22:08:58.904Z,68
2022-08-05T22:18:34.237Z,87
2022-08-05T22:28:46.392Z,56
2022-08-05T22:36:58.230Z,111
2022-08-05T22:45:37.058Z,117
2022-08-05T22:54:27.981Z,134
2022-08-05T23:03:21.038Z,118
2022-08-05T23:12:07.049Z,99
2022-08-05T23:20:00.507Z,100
2022-08-05T23:27:42.635Z,135
2022-08-05T23:36:16.439Z,110
2022-08-05T23:44:37.251Z,88
2022-08-05T23:52:28.334Z,97
